Time;durP1;ratioP1;P1;durP2;ratioP2;P2;SDS_P1;SDS_P2;PMS_P1;PMS_P2;Temp;Humidity;BMP_temperature;BMP_pressure;BME280_temperature;BME280_humidity;BME280_pressure;Samples;Min_cycle;Max_cycle;Signal;HPM_P1;HPM_P2
2024/01/25 00:00:39;;;;;;;;;1.00;1.00;;;;;19.11;49.80;99773.03;34493;1269;20713;-70
2024/01/25 00:01:46;;;;;;;;;1.00;1.00;;;;;19.09;50.00;99782.10;34575;1253;22322;-70
2024/01/25 00:02:34;;;;;;;;;1.00;1.00;;;;;19.09;49.92;99780.53;34512;1268;19301;-70
2024/01/25 00:03:21;;;;;;;;;2.00;2.00;;;;;19.08;50.02;99782.27;34555;1253;19334;-70
2024/01/25 00:04:09;;;;;;;;;1.00;1.00;;;;;19.07;50.25;99774.73;34515;1253;21127;-70
2024/01/25 00:04:56;;;;;;;;;2.00;1.00;;;;;19.05;50.14;99773.34;34564;1268;20700;-70
2024/01/25 00:05:44;;;;;;;;;1.00;1.00;;;;;19.03;50.46;99776.83;34513;1269;20853;-70
2024/01/25 00:06:31;;;;;;;;;2.00;1.00;;;;;19.03;50.37;99779.05;34557;1268;19488;-70
2024/01/25 00:07:19;;;;;;;;;1.00;1.00;;;;;19.03;50.29;99775.91;34516;1268;21065;-70
2024/01/25 00:08:06;;;;;;;;;1.00;1.00;;;;;19.02;50.56;99775.27;34516;1268;19699;-70
2024/01/25 00:08:54;;;;;;;;;1.00;1.00;;;;;19.02;50.51;99778.89;34520;1260;19593;-70
2024/01/25 00:09:41;;;;;;;;;1.00;1.00;;;;;19.02;50.52;99786.66;34476;1269;20740;-71
2024/01/25 00:10:28;;;;;;;;;1.00;1.00;;;;;19.03;50.52;99780.95;34555;1254;20784;-71
2024/01/25 00:11:16;;;;;;;;;1.00;1.00;;;;;19.03;50.48;99778.73;34487;1269;20671;-70
2024/01/25 00:12:03;;;;;;;;;1.00;1.00;;;;;19.02;50.50;99782.54;34546;1253;20509;-71
2024/01/25 00:12:51;;;;;;;;;1.00;1.00;;;;;19.02;50.47;99784.39;34485;1269;20673;-70
2024/01/25 00:13:38;;;;;;;;;2.00;2.00;;;;;19.02;50.55;99784.44;34541;1269;19399;-69
2024/01/25 00:14:26;;;;;;;;;1.00;1.00;;;;;19.02;50.66;99791.70;34480;1268;19513;-70
2024/01/25 00:15:13;;;;;;;;;2.00;2.00;;;;;19.02;50.53;99785.36;34545;1269;19709;-69
2024/01/25 00:16:01;;;;;;;;;1.00;1.00;;;;;19.00;50.46;99780.86;34476;1269;19349;-69
2024/01/25 00:16:48;;;;;;;;;1.00;1.00;;;;;19.01;50.35;99786.40;34536;1253;20834;-70
2024/01/25 00:17:36;;;;;;;;;1.00;1.00;;;;;19.00;50.52;99781.14;34472;1269;20715;-70
2024/01/25 00:18:23;;;;;;;;;2.00;1.50;;;;;19.00;50.46;99781.52;34529;1268;20690;-70
2024/01/25 00:19:10;;;;;;;;;2.00;2.00;;;;;19.00;50.38;99789.61;34455;1269;19345;-70
2024/01/25 00:19:58;;;;;;;;;1.67;1.00;;;;;19.00;50.46;99788.73;34543;1269;20618;-69
2024/01/25 00:20:45;;;;;;;;;2.00;2.00;;;;;19.00;50.41;99793.84;34463;1269;19338;-70
2024/01/25 00:21:33;;;;;;;;;1.00;1.00;;;;;19.00;50.39;99782.23;34581;1253;21088;-69
2024/01/25 00:22:20;;;;;;;;;1.00;1.00;;;;;19.00;50.52;99791.02;34481;1269;19604;-70
2024/01/25 00:23:08;;;;;;;;;1.00;1.00;;;;;19.00;50.39;99786.41;34584;1268;20843;-69
2024/01/25 00:23:55;;;;;;;;;1.00;1.00;;;;;19.00;50.47;99797.10;34452;1269;21168;-70
2024/01/25 00:24:42;;;;;;;;;1.00;1.00;;;;;19.00;50.30;99788.80;34556;1268;19322;-69
2024/01/25 00:25:30;;;;;;;;;1.00;1.00;;;;;18.99;50.37;99787.27;34477;1269;20710;-69
2024/01/25 00:26:17;;;;;;;;;2.00;1.00;;;;;18.99;50.46;99785.21;34521;1269;19338;-69
2024/01/25 00:27:05;;;;;;;;;1.00;1.00;;;;;19.00;50.41;99795.30;34474;1269;20685;-70
2024/01/25 00:27:52;;;;;;;;;1.00;1.00;;;;;19.00;50.17;99797.91;34532;1269;20611;-70
2024/01/25 00:28:40;;;;;;;;;1.00;1.00;;;;;19.00;50.38;99806.48;34494;1268;19394;-70
2024/01/25 00:29:27;;;;;;;;;1.50;1.00;;;;;18.99;50.43;99783.42;34541;1269;20718;-69
2024/01/25 00:30:14;;;;;;;;;1.00;1.00;;;;;18.99;50.30;99797.16;34503;1269;19646;-69
2024/01/25 00:31:02;;;;;;;;;1.00;1.00;;;;;19.00;50.20;99801.98;34542;1268;20790;-69
2024/01/25 00:31:49;;;;;;;;;1.00;1.00;;;;;19.01;50.35;99812.52;34509;1269;21823;-69
2024/01/25 00:32:37;;;;;;;;;1.00;1.00;;;;;19.00;50.35;99808.33;34564;1252;20794;-70
2024/01/25 00:33:24;;;;;;;;;1.00;1.00;;;;;18.99;50.20;99808.71;34517;1269;20712;-70
2024/01/25 00:34:11;;;;;;;;;2.00;2.00;;;;;18.99;50.28;99810.67;34539;1260;20734;-70
2024/01/25 00:34:59;;;;;;;;;2.00;2.00;;;;;18.98;50.32;99807.25;34549;1268;19452;-69
2024/01/25 00:35:46;;;;;;;;;1.00;1.00;;;;;18.98;50.47;99813.77;34469;1268;20611;-70
2024/01/25 00:36:34;;;;;;;;;1.00;1.00;;;;;18.99;50.17;99813.01;34566;1260;19305;-69
2024/01/25 00:37:21;;;;;;;;;1.00;1.00;;;;;18.99;50.13;99813.38;34469;1269;20687;-71
2024/01/25 00:38:09;;;;;;;;;1.00;1.00;;;;;18.98;50.21;99808.73;34555;1254;20799;-70
2024/01/25 00:38:56;;;;;;;;;5.00;2.00;;;;;18.98;50.12;99808.40;34490;1253;20723;-70
2024/01/25 00:39:43;;;;;;;;;1.00;1.00;;;;;18.98;50.14;99810.52;34571;1260;19366;-70
2024/01/25 00:40:31;;;;;;;;;1.00;1.00;;;;;18.98;50.17;99809.98;34478;1269;20723;-71
2024/01/25 00:41:18;;;;;;;;;1.00;1.00;;;;;18.97;50.28;99812.70;34572;1253;20791;-70
2024/01/25 00:42:06;;;;;;;;;2.00;1.00;;;;;18.97;50.07;99816.27;34473;1269;19359;-71
2024/01/25 00:42:53;;;;;;;;;1.00;1.00;;;;;18.97;50.20;99820.46;34547;1268;21164;-70
2024/01/25 00:43:41;;;;;;;;;1.00;1.00;;;;;18.96;50.10;99809.66;34478;1269;20555;-71
2024/01/25 00:44:28;;;;;;;;;1.00;1.00;;;;;18.96;50.16;99810.25;34572;1253;21952;-71
2024/01/25 00:45:16;;;;;;;;;1.00;1.00;;;;;18.96;50.25;99804.51;34476;1269;20553;-71
2024/01/25 00:46:03;;;;;;;;;2.00;1.50;;;;;18.96;50.15;99811.66;34550;1253;20808;-71
2024/01/25 00:46:53;;;;;;;;;2.00;2.00;;;;;18.96;50.19;99805.59;34482;1269;20694;-71
2024/01/25 00:47:40;;;;;;;;;1.00;1.00;;;;;18.96;50.22;99814.76;34457;1269;20803;-71
2024/01/25 00:48:28;;;;;;;;;1.00;1.00;;;;;18.97;49.96;99809.60;34577;1269;20667;-71
2024/01/25 00:49:15;;;;;;;;;1.00;1.00;;;;;18.96;50.06;99814.92;34476;1269;19365;-70
2024/01/25 00:50:03;;;;;;;;;1.00;1.00;;;;;18.96;50.19;99810.25;34570;1269;19298;-71
2024/01/25 00:50:50;;;;;;;;;2.00;1.00;;;;;18.96;50.14;99811.18;34479;1269;20666;-71
2024/01/25 00:51:37;;;;;;;;;;;;;;;18.96;49.99;99795.22;34566;1269;20597;-71
2024/01/25 00:52:25;;;;;;;;;1.00;1.00;;;;;18.96;50.05;99806.24;34499;1269;19318;-70
2024/01/25 00:53:12;;;;;;;;;1.00;1.00;;;;;18.97;50.28;99807.66;34539;1253;19320;-70
2024/01/25 00:54:00;;;;;;;;;1.00;1.00;;;;;18.97;50.13;99804.44;34495;1269;20825;-70
2024/01/25 00:54:47;;;;;;;;;1.00;1.00;;;;;18.96;50.27;99796.95;34478;1269;20686;-70
2024/01/25 00:55:35;;;;;;;;;1.00;1.00;;;;;18.96;50.12;99806.95;34525;1260;22306;-70
2024/01/25 00:56:22;;;;;;;;;1.00;1.00;;;;;18.96;50.09;99805.15;34474;1260;19379;-71
2024/01/25 00:57:09;;;;;;;;;2.00;1.00;;;;;18.96;50.00;99808.36;34539;1260;20668;-70
2024/01/25 00:57:57;;;;;;;;;1.00;1.00;;;;;18.95;50.16;99801.85;34499;1253;19530;-70
2024/01/25 00:58:44;;;;;;;;;1.00;1.00;;;;;18.96;50.04;99800.33;34542;1269;20706;-70
2024/01/25 00:59:32;;;;;;;;;1.00;1.00;;;;;18.95;50.09;99799.18;34507;1269;19252;-70
2024/01/25 01:00:19;;;;;;;;;1.00;1.00;;;;;18.96;50.08;99806.36;34546;1269;19337;-70
2024/01/25 01:01:06;;;;;;;;;1.00;1.00;;;;;18.95;50.09;99803.86;34529;1253;20779;-70
2024/01/25 01:01:54;;;;;;;;;2.00;2.00;;;;;18.96;50.02;99800.77;34542;1268;20917;-70
2024/01/25 01:02:41;;;;;;;;;1.67;1.67;;;;;18.95;49.99;99805.48;34513;1253;20696;-70
2024/01/25 01:03:29;;;;;;;;;1.00;1.00;;;;;18.96;49.80;99813.89;34543;1269;20730;-71
2024/01/25 01:04:16;;;;;;;;;1.00;1.00;;;;;18.97;49.69;99807.36;34500;1269;19490;-70
2024/01/25 01:05:04;;;;;;;;;1.00;1.00;;;;;18.98;49.51;99800.69;34561;1268;20721;-70
2024/01/25 01:05:51;;;;;;;;;1.00;1.00;;;;;19.00;49.49;99805.89;34464;1269;20507;-70
2024/01/25 01:06:38;;;;;;;;;2.00;2.00;;;;;19.02;49.29;99804.90;34574;1260;21783;-70
2024/01/25 01:07:26;;;;;;;;;1.00;1.00;;;;;19.04;49.24;99805.21;34461;1269;21766;-70
2024/01/25 01:08:13;;;;;;;;;1.00;1.00;;;;;19.05;49.14;99796.95;34584;1268;19344;-70
2024/01/25 01:09:01;;;;;;;;;1.00;1.00;;;;;19.06;49.23;99800.04;34473;1269;19329;-70
2024/01/25 01:09:48;;;;;;;;;1.00;1.00;;;;;19.07;49.05;99801.83;34564;1269;19507;-70
2024/01/25 01:10:36;;;;;;;;;1.00;1.00;;;;;19.09;49.05;99800.02;34451;1269;19504;-70
2024/01/25 01:11:23;;;;;;;;;1.00;1.00;;;;;19.11;49.17;99799.25;34574;1268;19366;-70
2024/01/25 01:12:11;;;;;;;;;1.00;1.00;;;;;19.12;48.97;99806.46;34467;1269;19328;-70
2024/01/25 01:12:58;;;;;;;;;1.00;1.00;;;;;19.13;48.96;99797.83;34481;1269;19330;-70
2024/01/25 01:13:46;;;;;;;;;1.00;1.00;;;;;19.13;49.03;99802.71;34481;1269;19356;-70
2024/01/25 01:14:33;;;;;;;;;1.00;1.00;;;;;19.14;49.19;99808.08;34449;1269;20680;-70
2024/01/25 01:15:21;;;;;;;;;1.00;1.00;;;;;19.15;49.00;99805.73;34485;1253;20623;-70
2024/01/25 01:16:08;;;;;;;;;1.50;1.00;;;;;19.15;49.07;99799.92;34484;1253;20748;-70
2024/01/25 01:16:56;;;;;;;;;1.00;1.00;;;;;19.15;49.20;99798.63;34494;1260;20693;-70
2024/01/25 01:17:43;;;;;;;;;1.00;1.00;;;;;19.15;48.82;99802.27;34445;1269;20806;-70
2024/01/25 01:18:31;;;;;;;;;2.00;1.00;;;;;19.16;49.07;99801.23;34474;1268;20683;-70
2024/01/25 01:19:18;;;;;;;;;1.00;1.00;;;;;19.16;48.99;99808.17;34459;1269;19347;-70
2024/01/25 01:20:06;;;;;;;;;1.00;1.00;;;;;19.14;48.97;99804.33;34498;1268;20658;-71
2024/01/25 01:20:53;;;;;;;;;2.00;2.00;;;;;19.15;48.83;99803.41;34494;1260;20972;-70
2024/01/25 01:21:43;;;;;;;;;1.00;1.00;;;;;19.14;48.85;99803.73;34497;1253;21925;-70
2024/01/25 01:22:31;;;;;;;;;1.00;1.00;;;;;19.15;48.94;99816.33;34485;1268;19332;-70
2024/01/25 01:23:18;;;;;;;;;1.00;1.00;;;;;19.15;48.78;99805.20;34486;1253;21939;-70
2024/01/25 01:24:05;;;;;;;;;1.00;1.00;;;;;19.15;48.77;99806.23;34503;1269;19427;-70
2024/01/25 01:24:53;;;;;;;;;2.00;2.00;;;;;19.14;49.03;99811.23;34498;1269;21048;-70
2024/01/25 01:25:40;;;;;;;;;1.00;1.00;;;;;19.12;48.89;99811.13;34502;1268;20861;-70
2024/01/25 01:26:28;;;;;;;;;1.00;1.00;;;;;19.11;48.86;99810.16;34497;1269;20700;-70
2024/01/25 01:27:15;;;;;;;;;1.00;1.00;;;;;19.12;48.91;99808.53;34497;1269;19329;-70
2024/01/25 01:28:03;;;;;;;;;1.00;1.00;;;;;19.11;48.99;99805.70;34512;1268;19512;-70
2024/01/25 01:28:50;;;;;;;;;1.00;1.00;;;;;19.10;49.01;99810.00;34528;1268;19791;-70
2024/01/25 01:29:37;;;;;;;;;1.00;1.00;;;;;19.10;48.83;99805.51;34509;1268;21231;-70
2024/01/25 01:30:25;;;;;;;;;1.00;1.00;;;;;19.10;49.04;99810.98;34502;1268;19308;-70
2024/01/25 01:31:12;;;;;;;;;1.00;1.00;;;;;19.09;48.68;99811.10;34516;1254;19257;-70
2024/01/25 01:32:00;;;;;;;;;1.00;1.00;;;;;19.09;48.96;99817.61;34537;1268;19325;-70
2024/01/25 01:32:47;;;;;;;;;1.00;1.00;;;;;19.08;48.93;99814.08;34503;1253;20689;-70
2024/01/25 01:33:35;;;;;;;;;1.00;1.00;;;;;19.08;49.02;99815.77;34558;1253;20830;-70
2024/01/25 01:34:22;;;;;;;;;1.00;1.00;;;;;19.08;49.04;99810.40;34506;1268;20679;-70
2024/01/25 01:35:10;;;;;;;;;1.00;1.00;;;;;19.08;49.00;99823.86;34534;1268;20457;-70
2024/01/25 01:35:57;;;;;;;;;1.00;1.00;;;;;19.08;49.14;99820.94;34493;1269;19328;-70
2024/01/25 01:36:45;;;;;;;;;1.00;1.00;;;;;19.07;49.23;99819.70;34503;1269;21157;-70
2024/01/25 01:37:32;;;;;;;;;1.00;1.00;;;;;19.06;49.19;99818.39;34511;1269;20681;-70
2024/01/25 01:38:19;;;;;;;;;1.00;1.00;;;;;19.06;49.06;99816.77;34550;1268;20685;-70
2024/01/25 01:39:07;;;;;;;;;1.00;1.00;;;;;19.05;48.93;99821.54;34529;1268;20581;-70
2024/01/25 01:39:55;;;;;;;;;1.67;1.00;;;;;19.05;49.09;99818.83;34505;1268;22197;-70
2024/01/25 01:40:43;;;;;;;;;1.00;1.00;;;;;19.05;49.17;99812.05;34503;1268;20706;-70
2024/01/25 01:41:30;;;;;;;;;2.00;1.00;;;;;19.04;49.24;99820.08;34506;1260;21252;-70
2024/01/25 01:42:18;;;;;;;;;2.00;1.00;;;;;19.04;49.04;99833.11;34521;1268;20661;-70
2024/01/25 01:43:05;;;;;;;;;1.00;1.00;;;;;19.04;48.98;99823.98;34513;1268;20764;-70
2024/01/25 01:43:52;;;;;;;;;1.00;1.00;;;;;19.02;49.17;99819.45;34516;1253;20915;-71
2024/01/25 01:44:40;;;;;;;;;1.00;1.00;;;;;19.00;49.23;99831.45;34533;1253;20787;-70
2024/01/25 01:45:27;;;;;;;;;1.00;1.00;;;;;19.00;49.33;99826.52;34503;1253;20776;-70
2024/01/25 01:46:15;;;;;;;;;2.00;1.00;;;;;18.99;49.32;99826.09;34478;1269;20721;-70
2024/01/25 01:47:02;;;;;;;;;1.00;1.00;;;;;18.99;49.45;99827.38;34536;1253;22126;-70
2024/01/25 01:47:50;;;;;;;;;1.00;1.00;;;;;18.99;49.53;99827.01;34470;1269;20669;-70
2024/01/25 01:48:37;;;;;;;;;1.00;1.00;;;;;18.99;49.53;99832.77;34522;1253;21041;-70
2024/01/25 01:49:24;;;;;;;;;1.50;1.50;;;;;18.99;49.43;99828.04;34467;1268;22264;-70
2024/01/25 01:50:12;;;;;;;;;1.00;1.00;;;;;18.98;49.50;99833.64;34545;1268;20768;-70
2024/01/25 01:50:59;;;;;;;;;1.00;1.00;;;;;18.98;49.45;99830.54;34491;1269;20699;-70
2024/01/25 01:51:47;;;;;;;;;3.00;1.67;;;;;18.99;49.47;99830.60;34482;1253;20705;-70
2024/01/25 01:52:34;;;;;;;;;1.00;1.00;;;;;18.99;49.57;99825.60;34499;1253;20808;-70
2024/01/25 01:53:22;;;;;;;;;2.00;1.00;;;;;18.99;49.43;99831.23;34475;1269;20191;-70
2024/01/25 01:54:09;;;;;;;;;1.00;1.00;;;;;18.98;49.46;99836.02;34512;1269;20733;-70
2024/01/25 01:54:56;;;;;;;;;2.00;2.00;;;;;18.98;49.49;99820.77;34470;1253;20685;-70
2024/01/25 01:55:44;;;;;;;;;1.00;1.00;;;;;18.97;49.38;99822.13;34503;1269;20785;-70
2024/01/25 01:56:32;;;;;;;;;1.00;1.00;;;;;18.98;49.60;99824.41;34459;1269;19332;-70
2024/01/25 01:57:19;;;;;;;;;1.00;1.00;;;;;18.97;49.57;99835.55;34510;1269;21977;-70
2024/01/25 01:58:07;;;;;;;;;1.00;1.00;;;;;18.97;49.61;99833.20;34472;1253;21088;-70
2024/01/25 01:58:54;;;;;;;;;1.00;1.00;;;;;18.97;49.40;99839.66;34512;1268;20700;-70
2024/01/25 01:59:41;;;;;;;;;1.00;1.00;;;;;18.98;49.46;99833.31;34469;1268;20766;-70
2024/01/25 02:00:29;;;;;;;;;1.00;1.00;;;;;18.97;49.58;99838.14;34538;1268;19361;-70
2024/01/25 02:01:16;;;;;;;;;1.00;1.00;;;;;18.97;49.58;99835.54;34486;1253;21120;-71
2024/01/25 02:02:04;;;;;;;;;1.00;1.00;;;;;18.97;49.65;99840.32;34538;1268;19353;-71
2024/01/25 02:02:51;;;;;;;;;1.50;1.50;;;;;18.98;49.47;99836.89;34474;1253;20683;-71
2024/01/25 02:03:38;;;;;;;;;1.00;1.00;;;;;18.98;49.52;99841.61;34536;1268;19469;-71
2024/01/25 02:04:26;;;;;;;;;1.00;1.00;;;;;18.98;49.45;99834.23;34474;1269;19654;-71
2024/01/25 02:05:13;;;;;;;;;2.00;1.00;;;;;18.97;49.49;99843.52;34544;1268;22441;-71
2024/01/25 02:06:02;;;;;;;;;1.00;1.00;;;;;18.97;49.39;99841.73;34482;1269;21075;-70
2024/01/25 02:06:49;;;;;;;;;2.00;1.00;;;;;18.97;49.60;99838.30;34522;1269;19392;-71
2024/01/25 02:07:37;;;;;;;;;3.33;2.00;;;;;18.97;49.47;99837.98;34476;1269;19362;-71
2024/01/25 02:08:25;;;;;;;;;1.50;1.50;;;;;18.97;49.48;99838.15;34513;1268;19338;-71
2024/01/25 02:09:13;;;;;;;;;1.00;1.00;;;;;18.97;49.42;99829.85;34525;1268;21072;-71
2024/01/25 02:10:00;;;;;;;;;2.00;1.00;;;;;18.97;49.53;99837.17;34503;1269;20671;-70
2024/01/25 02:10:47;;;;;;;;;2.00;2.00;;;;;18.97;49.70;99837.98;34528;1253;20854;-70
2024/01/25 02:11:35;;;;;;;;;1.00;1.00;;;;;18.96;49.60;99836.41;34508;1268;19348;-70
2024/01/25 02:12:22;;;;;;;;;1.00;1.00;;;;;18.96;49.47;99842.66;34553;1253;19344;-70
2024/01/25 02:13:10;;;;;;;;;1.00;1.00;;;;;18.95;49.38;99841.67;34496;1268;21956;-71
2024/01/25 02:13:57;;;;;;;;;1.00;1.00;;;;;18.95;49.40;99839.52;34457;1269;20609;-71
2024/01/25 02:14:44;;;;;;;;;1.00;1.00;;;;;18.95;49.62;99842.29;34525;1268;20715;-70
2024/01/25 02:15:32;;;;;;;;;1.33;1.00;;;;;18.94;49.45;99842.39;34474;1253;20752;-70
2024/01/25 02:16:19;;;;;;;;;1.00;1.00;;;;;18.94;49.39;99839.30;34532;1268;21730;-70
2024/01/25 02:17:07;;;;;;;;;1.00;1.00;;;;;18.95;49.41;99837.77;34464;1269;19347;-70
2024/01/25 02:17:54;;;;;;;;;1.00;1.00;;;;;18.95;49.45;99840.92;34558;1253;22634;-70
2024/01/25 02:18:42;;;;;;;;;1.00;1.00;;;;;18.95;49.43;99839.89;34481;1253;20634;-70
2024/01/25 02:19:29;;;;;;;;;1.00;1.00;;;;;18.95;49.48;99845.21;34566;1269;20792;-71
2024/01/25 02:20:16;;;;;;;;;1.50;1.50;;;;;18.94;49.40;99843.70;34502;1253;20805;-71
2024/01/25 02:21:04;;;;;;;;;1.00;1.00;;;;;18.94;49.51;99844.40;34578;1269;19486;-70
2024/01/25 02:21:51;;;;;;;;;2.00;1.00;;;;;18.94;49.29;99833.92;34475;1253;19321;-71
2024/01/25 02:22:39;;;;;;;;;1.00;1.00;;;;;18.94;49.34;99841.59;34559;1269;21826;-71
2024/01/25 02:23:26;;;;;;;;;3.00;2.00;;;;;18.94;49.30;99844.89;34463;1269;20725;-71
2024/01/25 02:24:13;;;;;;;;;1.00;1.00;;;;;18.94;49.24;99849.78;34588;1268;20737;-70
2024/01/25 02:25:01;;;;;;;;;1.00;1.00;;;;;18.94;49.34;99841.95;34466;1253;20828;-70
2024/01/25 02:25:48;;;;;;;;;1.00;1.00;;;;;18.93;49.25;99845.23;34583;1269;20698;-70
2024/01/25 02:26:36;;;;;;;;;1.00;1.00;;;;;18.93;49.44;99848.80;34485;1269;20633;-70
2024/01/25 02:27:23;;;;;;;;;2.00;2.00;;;;;18.94;49.26;99847.45;34576;1269;20633;-70
2024/01/25 02:28:10;;;;;;;;;1.00;1.00;;;;;18.92;49.33;99852.88;34504;1253;20962;-71
2024/01/25 02:28:58;;;;;;;;;1.00;1.00;;;;;18.93;49.46;99850.05;34616;1268;19448;-70
2024/01/25 02:29:45;;;;;;;;;1.00;1.00;;;;;18.93;49.45;99849.13;34509;1269;19434;-70
2024/01/25 02:30:33;;;;;;;;;1.00;1.00;;;;;18.93;49.28;99840.98;34604;1268;19333;-71
2024/01/25 02:31:20;;;;;;;;;2.00;2.00;;;;;18.93;49.41;99844.24;34509;1269;19371;-70
2024/01/25 02:32:07;;;;;;;;;1.00;1.00;;;;;18.93;49.54;99846.25;34593;1268;20785;-70
2024/01/25 02:32:55;;;;;;;;;1.00;1.00;;;;;18.93;49.32;99841.37;34504;1268;19384;-70
2024/01/25 02:33:43;;;;;;;;;1.00;1.00;;;;;18.93;49.41;99834.37;34625;1268;19356;-70
2024/01/25 02:34:30;;;;;;;;;1.00;1.00;;;;;18.93;49.39;99843.82;34531;1269;19195;-71
2024/01/25 02:35:17;;;;;;;;;1.00;1.00;;;;;18.93;49.47;99844.52;34474;1269;19380;-70
2024/01/25 02:36:05;;;;;;;;;1.00;1.00;;;;;18.92;49.36;99840.62;34541;1253;20832;-70
2024/01/25 02:36:52;;;;;;;;;1.00;1.00;;;;;18.93;49.22;99837.85;34470;1253;21984;-70
2024/01/25 02:37:40;;;;;;;;;1.50;1.50;;;;;18.94;49.07;99843.10;34541;1269;19367;-70
2024/01/25 02:38:27;;;;;;;;;1.00;1.00;;;;;18.95;48.99;99838.86;34455;1269;20698;-70
2024/01/25 02:39:14;;;;;;;;;1.00;1.00;;;;;18.96;48.88;99843.52;34556;1269;19557;-71
2024/01/25 02:40:03;;;;;;;;;1.00;1.00;;;;;18.98;48.84;99840.59;34480;1253;20761;-70
2024/01/25 02:40:50;;;;;;;;;1.00;1.00;;;;;18.99;48.77;99839.33;34491;1269;20747;-70
2024/01/25 02:41:38;;;;;;;;;1.00;1.00;;;;;19.02;48.68;99841.53;34612;1269;19350;-70
2024/01/25 02:42:25;;;;;;;;;2.00;2.00;;;;;19.04;48.48;99840.66;34511;1268;20577;-70
2024/01/25 02:43:13;;;;;;;;;1.00;1.00;;;;;19.05;48.64;99839.95;34599;1269;20705;-70
2024/01/25 02:44:00;;;;;;;;;1.00;1.00;;;;;19.06;48.40;99823.98;34493;1253;20727;-70
2024/01/25 02:44:49;;;;;;;;;2.00;1.00;;;;;19.08;48.18;99845.95;34507;1261;19471;-70
2024/01/25 02:45:36;;;;;;;;;1.00;1.00;;;;;19.09;48.27;99841.44;34466;1269;19352;-70
2024/01/25 02:46:23;;;;;;;;;1.00;1.00;;;;;19.11;48.35;99848.88;34590;1268;20856;-70
2024/01/25 02:47:11;;;;;;;;;1.00;1.00;;;;;19.12;48.30;99842.23;34476;1269;20696;-70
2024/01/25 02:47:58;;;;;;;;;1.50;1.50;;;;;19.13;48.36;99837.23;34614;1260;19374;-70
2024/01/25 02:48:46;;;;;;;;;2.33;1.00;;;;;19.12;48.26;99836.59;34490;1253;19315;-70
2024/01/25 02:49:33;;;;;;;;;1.00;1.00;;;;;19.12;48.12;99842.30;34598;1268;19327;-70
2024/01/25 02:50:20;;;;;;;;;1.00;1.00;;;;;19.12;48.28;99844.90;34481;1269;21768;-70
2024/01/25 02:51:08;;;;;;;;;1.00;1.00;;;;;19.12;48.22;99858.70;34595;1253;21965;-70
2024/01/25 02:51:55;;;;;;;;;1.00;1.00;;;;;19.13;48.27;99848.64;34500;1253;22064;-70
2024/01/25 02:52:43;;;;;;;;;1.00;1.00;;;;;19.13;47.95;99846.96;34489;1253;19518;-70
2024/01/25 02:53:30;;;;;;;;;1.00;1.00;;;;;19.13;48.34;99849.02;34526;1253;21139;-70
2024/01/25 02:54:17;;;;;;;;;1.00;1.00;;;;;19.13;48.40;99847.39;34465;1269;21860;-70
2024/01/25 02:55:05;;;;;;;;;1.00;1.00;;;;;19.13;48.12;99849.40;34524;1269;20657;-71
2024/01/25 02:55:52;;;;;;;;;2.00;1.00;;;;;19.13;48.10;99857.21;34466;1269;20659;-71
2024/01/25 02:56:40;;;;;;;;;1.00;1.00;;;;;19.13;48.08;99851.03;34533;1269;19428;-71
2024/01/25 02:57:27;;;;;;;;;2.00;2.00;;;;;19.11;48.13;99854.02;34475;1269;21855;-70
2024/01/25 02:58:15;;;;;;;;;2.00;1.00;;;;;19.11;48.32;99854.63;34536;1269;20555;-70
2024/01/25 02:59:02;;;;;;;;;1.00;1.00;;;;;19.10;48.25;99857.45;34483;1269;20712;-70
2024/01/25 02:59:49;;;;;;;;;1.33;1.00;;;;;19.09;48.29;99849.70;34561;1253;22322;-70
2024/01/25 03:00:37;;;;;;;;;1.00;1.00;;;;;19.08;48.25;99862.98;34484;1269;20797;-71
2024/01/25 03:01:24;;;;;;;;;4.50;4.00;;;;;19.08;48.19;99855.45;34537;1269;20682;-70
2024/01/25 03:02:12;;;;;;;;;1.00;1.00;;;;;19.08;48.17;99857.95;34506;1268;19418;-70
2024/01/25 03:02:59;;;;;;;;;1.00;1.00;;;;;19.08;48.11;99867.55;34557;1269;21815;-70
2024/01/25 03:03:47;;;;;;;;;2.00;1.00;;;;;19.09;48.10;99865.66;34482;1269;20807;-70
2024/01/25 03:04:34;;;;;;;;;1.00;1.00;;;;;19.09;48.07;99858.21;34574;1269;19401;-70
2024/01/25 03:05:21;;;;;;;;;1.00;1.00;;;;;19.08;48.14;99865.39;34498;1268;21766;-70
2024/01/25 03:06:09;;;;;;;;;1.00;1.00;;;;;19.08;48.06;99865.82;34575;1268;21909;-70
2024/01/25 03:06:56;;;;;;;;;1.00;1.00;;;;;19.07;48.19;99863.44;34530;1253;20410;-70
2024/01/25 03:07:44;;;;;;;;;1.00;1.00;;;;;19.08;48.19;99862.95;34584;1253;20799;-70
2024/01/25 03:08:31;;;;;;;;;1.00;1.00;;;;;19.07;47.92;99865.77;34522;1253;19524;-70
2024/01/25 03:09:21;;;;;;;;;1.00;1.00;;;;;19.06;48.11;99870.83;34563;1268;21008;-71
2024/01/25 03:10:08;;;;;;;;;1.00;1.00;;;;;19.05;48.28;99870.67;34477;1269;19348;-71
2024/01/25 03:10:56;;;;;;;;;1.00;1.00;;;;;19.05;48.23;99867.48;34510;1260;20947;-70
2024/01/25 03:11:44;;;;;;;;;1.00;1.00;;;;;19.04;48.26;99873.27;34518;1269;20687;-70
2024/01/25 03:12:31;;;;;;;;;1.00;1.00;;;;;19.05;48.28;99865.46;34474;1269;22010;-70
2024/01/25 03:13:18;;;;;;;;;1.00;1.00;;;;;19.04;48.39;99870.95;34458;1269;21971;-70
2024/01/25 03:14:06;;;;;;;;;2.00;1.00;;;;;19.04;48.35;99872.80;34476;1269;20501;-70
2024/01/25 03:14:53;;;;;;;;;1.00;1.00;;;;;19.03;48.26;99876.05;34463;1269;20735;-70
2024/01/25 03:15:41;;;;;;;;;1.00;1.00;;;;;19.02;48.41;99873.98;34487;1269;20736;-70
2024/01/25 03:16:28;;;;;;;;;1.00;1.00;;;;;19.01;48.48;99874.44;34453;1269;19484;-70
2024/01/25 03:17:15;;;;;;;;;1.00;1.00;;;;;18.99;48.38;99874.61;34496;1269;20914;-70
2024/01/25 03:18:03;;;;;;;;;1.00;1.00;;;;;18.99;48.32;99872.22;34467;1268;20647;-70
2024/01/25 03:18:50;;;;;;;;;1.00;1.00;;;;;19.00;48.38;99872.81;34489;1269;20697;-70
2024/01/25 03:19:38;;;;;;;;;2.00;2.00;;;;;18.99;48.50;99879.66;34478;1269;19343;-71
2024/01/25 03:20:25;;;;;;;;;2.00;1.00;;;;;18.99;48.37;99881.17;34484;1268;21069;-70
2024/01/25 03:21:13;;;;;;;;;1.00;1.00;;;;;18.97;48.40;99877.88;34473;1269;19380;-70
2024/01/25 03:22:01;;;;;;;;;1.50;1.50;;;;;18.98;48.51;99881.95;34517;1253;20686;-70
2024/01/25 03:22:49;;;;;;;;;2.00;1.00;;;;;18.98;48.36;99879.33;34491;1268;21835;-70
2024/01/25 03:23:36;;;;;;;;;1.00;1.00;;;;;18.97;48.58;99885.48;34470;1253;20796;-70
2024/01/25 03:24:24;;;;;;;;;1.50;1.50;;;;;18.97;48.46;99885.91;34486;1253;20881;-71
2024/01/25 03:25:11;;;;;;;;;2.00;2.00;;;;;18.96;48.50;99883.47;34472;1269;20714;-70
2024/01/25 03:25:59;;;;;;;;;1.00;1.00;;;;;18.95;48.58;99891.83;34482;1260;20733;-70
2024/01/25 03:26:46;;;;;;;;;1.50;1.00;;;;;18.95;48.86;99892.27;34451;1268;20590;-70
2024/01/25 03:27:33;;;;;;;;;1.00;1.00;;;;;18.95;48.74;99891.13;34479;1269;20707;-70
2024/01/25 03:28:21;;;;;;;;;1.00;1.00;;;;;18.96;48.68;99891.29;34482;1253;20791;-71
2024/01/25 03:29:08;;;;;;;;;2.00;2.00;;;;;18.96;48.77;99895.95;34459;1253;20660;-70
2024/01/25 03:29:56;;;;;;;;;1.00;1.00;;;;;18.97;48.75;99895.68;34471;1269;20601;-71
2024/01/25 03:30:43;;;;;;;;;1.00;1.00;;;;;18.96;48.71;99897.96;34451;1269;21158;-71
2024/01/25 03:31:31;;;;;;;;;1.00;1.00;;;;;18.96;48.68;99894.39;34477;1253;21953;-71
2024/01/25 03:32:18;;;;;;;;;1.00;1.00;;;;;18.95;48.81;99901.06;34474;1269;20805;-70
2024/01/25 03:33:05;;;;;;;;;2.00;1.00;;;;;18.95;48.83;99900.14;34490;1269;22127;-71
2024/01/25 03:33:53;;;;;;;;;1.00;1.00;;;;;18.95;48.84;99908.66;34486;1269;20706;-71
2024/01/25 03:34:40;;;;;;;;;1.00;1.00;;;;;18.95;48.59;99905.57;34514;1269;20715;-70
2024/01/25 03:35:28;;;;;;;;;2.00;1.00;;;;;18.95;48.80;99905.08;34473;1269;20757;-70
2024/01/25 03:36:15;;;;;;;;;1.00;1.00;;;;;18.95;48.74;99900.84;34514;1253;21952;-70
2024/01/25 03:37:02;;;;;;;;;1.75;1.00;;;;;18.95;48.83;99905.79;34480;1268;21161;-70
2024/01/25 03:37:50;;;;;;;;;2.00;2.00;;;;;18.95;48.78;99902.80;34474;1253;22228;-70
2024/01/25 03:38:37;;;;;;;;;1.00;1.00;;;;;18.96;48.85;99905.30;34500;1268;20730;-70
2024/01/25 03:39:25;;;;;;;;;1.00;1.00;;;;;18.96;48.87;99897.91;34471;1253;20718;-70
2024/01/25 03:40:12;;;;;;;;;2.00;2.00;;;;;18.95;48.99;99903.98;34503;1268;20845;-71
2024/01/25 03:40:59;;;;;;;;;2.00;2.00;;;;;18.95;48.96;99900.20;34468;1268;20741;-70
2024/01/25 03:41:47;;;;;;;;;1.00;1.00;;;;;18.95;48.85;99905.35;34528;1268;20668;-71
2024/01/25 03:42:34;;;;;;;;;3.00;2.50;;;;;18.95;48.77;99908.17;34493;1253;20937;-70
2024/01/25 03:43:23;;;;;;;;;2.00;2.00;;;;;18.96;48.87;99906.38;34526;1268;19358;-70
2024/01/25 03:44:10;;;;;;;;;3.33;3.33;;;;;18.96;48.80;99909.95;34462;1254;20836;-70